Data for 10/12/2007

Time Sea-Level Adjusted Pressure Absolute Pressure Temperature Relative Humidity Dew Point   
(mb) (inHg) (mb) (inHg) (C) (F) (%) (C) (F)
00:05 1016 30 845 24.95 6.7 44.1 57 -1.2 29.8
00:10 1016 30 845 24.95 6.9 44.3 57 -1.1 30.1
00:15 1016 30 845 24.95 6.7 44 58 -1 30.2
00:20 1016 30 845 24.95 6.6 43.8 58 -1.1 30.1
00:25 1016 30 845 24.95 6.5 43.8 59 -0.9 30.4
00:30 1016 30 845 24.95 6.4 43.6 58 -1.2 29.8
00:35 1016 30 845 24.95 6.4 43.6 58 -1.2 29.8
00:40 1016 30 845 24.95 6.4 43.4 57 -1.5 29.4
00:45 1016 30 845 24.95 6.4 43.5 57 -1.4 29.5
00:50 1016 30 845 24.95 6.3 43.3 58 -1.4 29.4
00:55 1016 30 845 24.95 6.3 43.3 57 -1.5 29.3
01:00 1016 30 845 24.95 6.2 43.2 59 -1.3 29.7
01:05 1016 30 845 24.95 6 42.9 59 -1.4 29.5
01:10 1016 30 845 24.95 6 42.8 59 -1.4 29.5
01:15 1016 30 845 24.95 5.9 42.6 58 -1.6 29.1
01:20 1016 30 845 24.95 5.8 42.5 58 -1.8 28.7
01:25 1016 30 845 24.95 5.8 42.4 58 -1.8 28.7
01:30 1016 30 845 24.95 5.5 42 59 -1.9 28.6
01:35 1016 30 845 24.95 5.4 41.8 57 -2.3 27.9
01:40 1016 30 845 24.95 5.4 41.8 57 -2.3 27.8
01:45 1016 30 845 24.95 5.4 41.8 57 -2.4 27.7
01:50 1016 30 845 24.95 5.4 41.6 57 -2.4 27.7
01:55 1016 30 845 24.95 5.2 41.4 58 -2.3 27.8
02:00 1016 30 845 24.95 5.2 41.3 58 -2.4 27.7
02:05 1016 30 845 24.95 5.4 41.8 59 -1.9 28.5
02:10 1016 30 845 24.95 5.5 41.9 59 -1.9 28.5
02:15 1016 30 845 24.95 5.6 42 58 -2.1 28.2
02:20 1016 30 845 24.95 5.3 41.5 57 -2.5 27.5
02:25 1016 30 845 24.95 5 41.1 57 -2.8 27
02:30 1016 30 845 24.95 5 41 57 -2.8 27
02:35 1016 30 845 24.95 5.1 41.3 56 -2.8 26.9
02:40 1016 30 845 24.95 5.1 41.2 56 -3 26.6
02:45 1016 30 845 24.95 5.1 41.2 56 -3 26.6
02:50 1016 30 845 24.95 5.1 41.2 57 -2.8 26.9
02:55 1016 30 845 24.95 5.1 41.2 58 -2.4 27.7
03:00 1016 30 845 24.95 4.9 40.9 59 -2.3 27.9
03:05 1016 30 845 24.95 4.8 40.6 59 -2.5 27.5
03:10 1016 30 845 24.95 4.6 40.2 59 -2.8 27
03:15 1015 29.97 845 24.95 4.4 39.9 59 -2.8 26.9
03:20 1015 29.97 845 24.95 4.5 40.1 57 -3.2 26.3
03:25 1015 29.97 845 24.95 4.7 40.4 56 -3.3 26.1
03:30 1015 29.97 845 24.95 4.7 40.4 56 -3.4 25.9
03:35 1015 29.97 845 24.95 4.7 40.5 56 -3.3 26.1
03:40 1015 29.97 845 24.95 4.8 40.7 54 -3.7 25.3
03:45 1015 29.97 844 24.92 4.8 40.6 54 -3.7 25.3
03:50 1015 29.97 844 24.92 4.6 40.2 56 -3.5 25.6
03:55 1015 29.97 844 24.92 4.5 40.1 56 -3.4 25.8
04:00 1015 29.97 844 24.92 4.3 39.8 57 -3.5 25.6
04:05 1015 29.97 844 24.92 4.2 39.6 55 -3.9 24.9
04:10 1015 29.97 844 24.92 4.1 39.4 55 -4 24.8
04:15 1015 29.97 844 24.92 4.2 39.5 54 -4.4 24.1
04:20 1015 29.97 844 24.92 4.1 39.3 51 -5.2 22.6
04:25 1015 29.97 844 24.92 4.1 39.3 51 -5 22.9
04:30 1015 29.97 844 24.92 4.4 39.9 47 -5.8 21.5
04:35 1015 29.97 844 24.92 3.9 38.9 52 -5 22.9
04:40 1015 29.97 844 24.92 3.5 38.3 50 -6 21.2
04:45 1015 29.97 844 24.92 3.3 37.9 50 -6.3 20.7
04:50 1015 29.97 844 24.92 3.4 38.1 48 -6.6 20.2
04:55 1015 29.97 844 24.92 3.7 38.6 47 -6.5 20.4
05:00 1015 29.97 844 24.92 4.3 39.7 47 -6.1 21.1
05:05 1015 29.97 844 24.92 4.6 40.2 46 -6 21.2
05:10 1015 29.97 844 24.92 4.1 39.5 46 -6.3 20.6
05:15 1015 29.97 844 24.92 4 39.2 47 -6.3 20.6
05:20 1015 29.97 844 24.92 4.3 39.7 51 -4.9 23.2
05:25 1015 29.97 844 24.92 4.4 40 53 -4.3 24.3
05:30 1015 29.97 844 24.92 4.3 39.7 54 -4.2 24.5
05:35 1015 29.97 844 24.92 4 39.2 54 -4.4 24.1
05:40 1015 29.97 844 24.92 3.8 38.9 54 -4.6 23.7
05:45 1015 29.97 844 24.92 3.6 38.5 55 -4.6 23.8
05:50 1015 29.97 844 24.92 3.5 38.3 53 -5.1 22.9
05:55 1015 29.97 844 24.92 3.3 38 53 -5.3 22.5
06:00 1015 29.97 844 24.92 3 37.3 52 -5.8 21.5
06:05 1015 29.97 844 24.92 2.8 37.1 51 -6.2 20.8
06:10 1015 29.97 844 24.92 3.1 37.6 50 -6.3 20.7
06:15 1015 29.97 844 24.92 3.5 38.4 49 -6.2 20.8
06:20 1015 29.97 844 24.92 3.9 39.1 46 -6.8 19.8
06:25 1015 29.97 844 24.92 3.7 38.6 47 -6.6 20.1
06:30 1015 29.97 844 24.92 3.6 38.5 49 -6.1 21.1
06:35 1015 29.97 844 24.92 4 39.1 45 -7 19.3
06:40 1015 29.97 844 24.92 3.9 39 47 -6.4 20.4
06:45 1015 29.97 844 24.92 3.8 38.9 45 -7 19.3
06:50 1015 29.97 844 24.92 3.8 38.8 47 -6.6 20.2
06:55 1015 29.97 844 24.92 3.7 38.7 47 -6.7 19.9
07:00 1015 29.97 844 24.92 3.9 39 49 -6 21.2
07:05 1015 29.97 844 24.92 3.7 38.6 46 -6.7 19.9
07:10 1015 29.97 844 24.92 3.7 38.7 46 -6.8 19.8
07:15 1015 29.97 844 24.92 3.6 38.6 46 -6.9 19.6
07:20 1015 29.97 844 24.92 3.4 38.1 48 -6.5 20.2
07:25 1015 29.97 844 24.92 3.3 37.9 47 -6.9 19.5
07:30 1015 29.97 844 24.92 3.7 38.6 45 -7.2 19
07:35 1015 29.97 844 24.92 3.7 38.6 47 -6.5 20.2
07:40 1015 29.97 844 24.92 3.5 38.4 48 -6.6 20.2
07:45 1015 29.97 844 24.92 3.3 38 48 -6.7 19.9
07:50 1015 29.97 844 24.92 3.3 37.9 47 -7 19.4
07:55 1015 29.97 844 24.92 3.4 38.2 46 -7.2 19
08:00 1015 29.97 844 24.92 3.5 38.2 48 -6.4 20.4
08:05 1015 29.97 844 24.92 2.9 37.3 50 -6.4 20.5
08:10 1015 29.97 844 24.92 2.9 37.1 52 -6.1 21
08:15 1015 29.97 844 24.92 2.6 36.7 54 -5.8 21.6
08:20 1015 29.97 844 24.92 2.4 36.3 52 -6.5 20.3
08:25 1015 29.97 844 24.92 3 37.5 47 -7.2 19
08:30 1015 29.97 844 24.92 3.8 38.8 44 -7.2 19
08:35 1014 29.94 844 24.92 3.8 38.9 48 -6.1 21
08:40 1014 29.94 844 24.92 3.3 37.9 51 -5.8 21.5
08:45 1014 29.94 844 24.92 3 37.4 52 -5.8 21.5
08:50 1015 29.97 844 24.92 3.1 37.5 53 -5.7 21.8
08:55 1015 29.97 844 24.92 3.3 37.9 53 -5.5 22.1
09:00 1015 29.97 844 24.92 3.3 37.9 51 -5.9 21.5
09:05 1015 29.97 844 24.92 3.7 38.6 48 -6.4 20.5
09:10 1015 29.97 844 24.92 4.3 39.7 46 -6.3 20.7
09:15 1015 29.97 844 24.92 4.4 39.9 47 -5.9 21.3
09:20 1015 29.97 844 24.92 4.3 39.8 50 -5.2 22.6
09:25 1015 29.97 844 24.92 4.3 39.8 52 -4.8 23.4
09:30 1015 29.97 844 24.92 4.4 39.9 52 -4.7 23.5
09:35 1015 29.97 844 24.92 4.5 40.1 50 -5.1 22.8
09:40 1015 29.97 844 24.92 4.8 40.6 50 -4.9 23.2
09:45 1015 29.97 844 24.92 5.1 41.2 48 -5 22.9
09:50 1014 29.94 844 24.92 6.1 43 44 -5.1 22.8
09:55 1014 29.94 844 24.92 6.9 44.4 43 -4.9 23.2
10:00 1014 29.94 843 24.89 7.2 44.9 41 -5.1 22.8
10:05 1014 29.94 843 24.89 6.5 43.6 45 -4.5 23.9
10:10 1014 29.94 843 24.89 6.4 43.4 43 -5.2 22.6
10:15 1014 29.94 843 24.89 6.9 44.4 43 -4.8 23.3
10:20 1014 29.94 843 24.89 7.4 45.4 44 -3.9 24.9
10:25 1014 29.94 843 24.89 8 46.3 41 -4.4 24.1
10:30 1014 29.94 843 24.89 8.6 47.5 39 -4.6 23.7
10:35 1014 29.94 843 24.89 9 48.2 39 -4.3 24.3
10:40 1014 29.94 843 24.89 8.8 47.8 38 -4.6 23.8
10:45 1014 29.94 843 24.89 8.4 47.1 40 -4.5 23.9
10:50 1014 29.94 843 24.89 8.3 46.9 40 -4.6 23.7
10:55 1014 29.94 843 24.89 8.6 47.5 39 -4.6 23.8
11:00 1014 29.94 843 24.89 9.5 49.2 34 -5.5 22.1
11:05 1014 29.94 843 24.89 10 49.9 36 -4.3 24.3
11:10 1014 29.94 843 24.89 9.8 49.6 34 -5.2 22.7
11:15 1014 29.94 843 24.89 10.1 50.2 34 -4.9 23.1
11:20 1014 29.94 843 24.89 10.7 51.2 33 -4.8 23.4
11:25 1014 29.94 843 24.89 10.7 51.3 34 -4.5 23.9
11:30 1013 29.91 843 24.89 10.8 51.5 32 -5.4 22.3
11:35 1013 29.91 843 24.89 11.5 52.7 30 -5.2 22.6
11:40 1013 29.91 842 24.86 11 51.9 33 -4.7 23.6
11:45 1013 29.91 842 24.86 11.2 52.2 33 -4.5 23.8
11:50 1013 29.91 842 24.86 11.5 52.7 32 -4.4 24.1
11:55 1013 29.91 842 24.86 12.1 53.7 31 -4.3 24.3
12:00 1013 29.91 842 24.86 12 53.7 33 -3.8 25.1
12:05 1013 29.91 842 24.86 11.9 53.4 32 -4.1 24.6
12:10 1013 29.91 842 24.86 11.8 53.2 32 -4.2 24.4
12:15 1013 29.91 842 24.86 12.1 53.8 31 -4.3 24.3
12:20 1013 29.91 842 24.86 13.3 56 30 -3.8 25.2
12:25 1013 29.91 842 24.86 14 57.1 30 -3.4 25.9
12:30 1013 29.91 842 24.86 13.1 55.6 32 -3.3 26.1
12:35 1013 29.91 842 24.86 13.6 56.5 30 -3.7 25.3
12:40 1013 29.91 842 24.86 14.2 57.6 29 -3.5 25.7
12:45 1013 29.91 842 24.86 13.9 57.1 31 -3.1 26.5
12:50 1013 29.91 842 24.86 13.5 56.3 33 -2.4 27.6
12:55 1012 29.88 842 24.86 12.7 54.9 37 -1.3 29.6
13:00 1012 29.88 842 24.86 12.4 54.4 39 -1 30.3
13:05 1012 29.88 842 24.86 13.3 56 39 -0.2 31.7
13:10 1012 29.88 842 24.86 13.4 56.2 39 -0.2 31.7
13:15 1012 29.88 842 24.86 12.9 55.2 40 -0.5 31.1
13:20 1012 29.88 842 24.86 12 53.7 42 -0.5 31.1
13:25 1012 29.88 841 24.83 12.8 55 38 -1 30.1
13:30 1012 29.88 841 24.83 13.9 57 36 -0.9 30.4
13:35 1012 29.88 841 24.83 14.1 57.4 36 -0.6 31
13:40 1012 29.88 841 24.83 12.9 55.3 39 -0.8 30.6
13:45 1012 29.88 841 24.83 13.2 55.7 35 -1.9 28.5
13:50 1012 29.88 841 24.83 13 55.4 35 -2.2 28
13:55 1012 29.88 841 24.83 14.3 57.8 32 -2.1 28.2
14:00 1012 29.88 841 24.83 15 59 32 -1.6 29.1
14:05 1012 29.88 841 24.83 15.6 60 31 -1.5 29.3
14:10 1012 29.88 841 24.83 15.6 60 32 -0.9 30.3
14:15 1012 29.88 841 24.83 14.9 58.8 34 -0.6 30.9
14:20 1012 29.88 841 24.83 14.9 58.9 33 -1.3 29.7
14:25 1012 29.88 841 24.83 15 59 33 -0.9 30.5
14:30 1012 29.88 841 24.83 14.5 58.1 34 -1.2 29.9
14:35 1011 29.85 841 24.83 14.6 58.3 31 -2.1 28.3
14:40 1011 29.85 841 24.83 14.7 58.5 30 -2.5 27.5
14:45 1011 29.85 841 24.83 15.1 59.1 31 -1.9 28.6
14:50 1011 29.85 841 24.83 15.1 59.2 31 -1.7 28.9
14:55 1011 29.85 841 24.83 15.6 60.1 30 -2 28.4
15:00 1011 29.85 840 24.81 15.3 59.6 29 -2.5 27.5
15:05 1011 29.85 840 24.81 15.2 59.3 31 -1.6 29.2
15:10 1011 29.85 840 24.81 15.9 60.6 31 -1.3 29.7
15:15 1011 29.85 840 24.81 15.2 59.4 32 -1.3 29.7
15:20 1011 29.85 840 24.81 15.5 59.9 31 -1.4 29.4
15:25 1011 29.85 840 24.81 15.5 59.8 31 -1.7 29
15:30 1011 29.85 840 24.81 15.4 59.7 30 -2 28.3
15:35 1011 29.85 840 24.81 16.1 60.9 29 -1.7 28.9
15:40 1011 29.85 840 24.81 16.5 61.6 27 -2.5 27.6
15:45 1011 29.85 840 24.81 16.2 61.1 27 -2.6 27.3
15:50 1011 29.85 840 24.81 15.9 60.7 29 -1.8 28.8
15:55 1011 29.85 840 24.81 15 59.1 30 -2.3 27.9
16:00 1011 29.85 840 24.81 15.7 60.3 29 -2.2 28
16:05 1011 29.85 840 24.81 16.3 61.4 28 -2.1 28.3
16:10 1011 29.85 840 24.81 16.6 61.9 27 -2.4 27.7
16:15 1011 29.85 840 24.81 16.9 62.3 26 -2.4 27.7
16:20 1011 29.85 840 24.81 15.8 60.4 28 -2.4 27.7
16:25 1011 29.85 840 24.81 15.9 60.6 27 -3.2 26.2
16:30 1011 29.85 840 24.81 16.8 62.2 25 -3.1 26.5
16:35 1011 29.85 840 24.81 17 62.6 26 -2.5 27.6
16:40 1011 29.85 840 24.81 16.1 61.1 28 -2.4 27.6
16:45 1011 29.85 840 24.81 16.1 61 27 -3 26.5
16:50 1011 29.85 840 24.81 16.2 61.2 27 -2.9 26.7
16:55 1011 29.85 840 24.81 16.5 61.6 26 -3.2 26.2
17:00 1011 29.85 840 24.81 16.7 62 25 -3.3 26.1
17:05 1011 29.85 840 24.81 16.8 62.3 25 -3.4 25.9
17:10 1011 29.85 840 24.81 16.6 61.9 26 -2.9 26.8
17:15 1011 29.85 840 24.81 16 60.7 27 -3.1 26.5
17:20 1011 29.85 840 24.81 15.5 60 28 -3.1 26.5
17:25 1011 29.85 840 24.81 15.1 59.2 28 -3 26.5
17:30 1011 29.85 840 24.81 15 59 28 -3.3 26.1
17:35 1011 29.85 840 24.81 15 59 29 -2.9 26.8
17:40 1011 29.85 840 24.81 14.7 58.4 28 -3.3 26
17:45 1011 29.85 840 24.81 14.5 58.2 28 -3.8 25.1
17:50 1011 29.85 840 24.81 14.4 58 29 -3.2 26.2
17:55 1011 29.85 840 24.81 14.3 57.8 30 -2.8 27
18:00 1011 29.85 840 24.81 14.2 57.5 31 -2.5 27.5
18:05 1011 29.85 840 24.81 14 57.2 32 -2.4 27.7
18:10 1011 29.85 840 24.81 13.9 57 33 -2 28.4
18:15 1011 29.85 840 24.81 13.6 56.5 34 -1.8 28.7
18:20 1011 29.85 840 24.81 13.4 56.2 35 -1.8 28.8
18:25 1011 29.85 840 24.81 13.4 56.1 35 -1.5 29.2
18:30 1011 29.85 840 24.81 13.3 55.9 36 -1.2 29.8
18:35 1011 29.85 840 24.81 13.1 55.7 38 -0.8 30.6
18:40 1011 29.85 840 24.81 12.8 55 40 -0.4 31.3
18:45 1011 29.85 840 24.81 12.1 53.8 43 -0.1 31.7
18:50 1011 29.85 840 24.81 12.1 53.8 43 -0.1 31.9
18:55 1011 29.85 840 24.81 12 53.6 44 0.2 32.3
19:00 1011 29.85 840 24.81 11.8 53.2 45 0.3 32.6
19:05 1011 29.85 840 24.81 11.7 53.1 45 0.1 32.3
19:10 1011 29.85 840 24.81 11.5 52.8 46 0.5 32.8
19:15 1011 29.85 840 24.81 11.4 52.6 48 0.9 33.5
19:20 1011 29.85 840 24.81 11.2 52.1 48 0.8 33.4
19:25 1011 29.85 840 24.81 11 51.8 49 0.6 33.1
19:30 1011 29.85 840 24.81 10.9 51.6 49 0.7 33.2
19:35 1011 29.85 840 24.81 10.7 51.3 49 0.6 33
19:40 1011 29.85 840 24.81 10.7 51.2 49 0.5 33
19:45 1011 29.85 840 24.81 10.6 51.1 51 0.8 33.5
19:50 1011 29.85 840 24.81 10.4 50.7 52 0.9 33.7
19:55 1011 29.85 840 24.81 10.4 50.7 51 0.7 33.3
20:00 1011 29.85 840 24.81 10.2 50.4 51 0.7 33.2
20:05 1011 29.85 840 24.81 10.3 50.5 46 -0.9 30.3
20:10 1011 29.85 840 24.81 10.6 51.1 46 -0.6 30.9
20:15 1011 29.85 841 24.83 10.7 51.3 44 -0.9 30.3
20:20 1011 29.85 841 24.83 10.9 51.6 41 -1.6 29
20:25 1011 29.85 841 24.83 11.2 52.2 39 -2.1 28.1
20:30 1011 29.85 841 24.83 11.5 52.7 38 -2.3 27.8
20:35 1012 29.88 841 24.83 11.6 52.9 39 -1.8 28.8
20:40 1012 29.88 841 24.83 11.4 52.4 43 -0.9 30.4
20:45 1012 29.88 841 24.83 11 51.7 45 -0.6 31
20:50 1012 29.88 841 24.83 10.7 51.2 46 -0.3 31.5
20:55 1012 29.88 841 24.83 10.7 51.3 42 -1.7 28.9
21:00 1012 29.88 841 24.83 11.2 52.1 39 -2.1 28.2
21:05 1012 29.88 841 24.83 11.6 52.8 39 -1.9 28.6
21:10 1012 29.88 841 24.83 11.6 52.9 39 -1.8 28.7
21:15 1012 29.88 841 24.83 11.6 52.8 39 -1.8 28.8
21:20 1012 29.88 841 24.83 11.6 52.8 40 -1.7 29
21:25 1012 29.88 841 24.83 11.6 52.9 39 -1.8 28.8
21:30 1012 29.88 841 24.83 11.6 52.9 39 -1.7 28.9
21:35 1012 29.88 841 24.83 11.6 52.9 39 -1.7 28.9
21:40 1012 29.88 841 24.83 11.6 52.9 39 -1.8 28.7
21:45 1012 29.88 841 24.83 11.6 52.9 40 -1.4 29.5
21:50 1012 29.88 841 24.83 11.5 52.6 41 -1.2 29.8
21:55 1012 29.88 841 24.83 11.3 52.4 42 -1.2 29.9
22:00 1012 29.88 841 24.83 11.3 52.4 42 -1 30.1
22:05 1012 29.88 841 24.83 11.3 52.4 43 -0.8 30.5
22:10 1012 29.88 841 24.83 11.4 52.4 43 -0.9 30.4
22:15 1012 29.88 841 24.83 11.5 52.6 42 -0.8 30.6
22:20 1012 29.88 841 24.83 11.4 52.6 43 -0.7 30.7
22:25 1012 29.88 841 24.83 11.4 52.5 43 -0.8 30.6
22:30 1012 29.88 841 24.83 11.4 52.5 43 -0.6 30.9
22:35 1012 29.88 841 24.83 11.3 52.3 44 -0.5 31.1
22:40 1012 29.88 841 24.83 11.3 52.3 44 -0.5 31.1
22:45 1012 29.88 841 24.83 11.2 52.2 45 -0.2 31.6
22:50 1012 29.88 841 24.83 11.1 52 45 -0.3 31.4
22:55 1012 29.88 842 24.86 11.1 51.9 45 -0.3 31.4
23:00 1012 29.88 842 24.86 11.1 52 45 -0.3 31.5
23:05 1012 29.88 842 24.86 11 51.7 47 0.1 32.2
23:10 1012 29.88 842 24.86 10.5 50.9 46 -0.5 31.1
23:15 1012 29.88 842 24.86 10.3 50.5 48 -0.2 31.7
23:20 1012 29.88 842 24.86 10.4 50.6 48 -0.1 31.9
23:25 1012 29.88 842 24.86 10.5 50.8 48 -0.1 31.8
23:30 1013 29.91 842 24.86 10.4 50.7 48 -0.2 31.7
23:35 1013 29.91 842 24.86 10.5 50.8 47 -0.3 31.5
23:40 1013 29.91 842 24.86 10.5 51 48 -0.1 31.8
23:45 1013 29.91 842 24.86 10.5 50.9 49 0.2 32.4
23:50 1013 29.91 842 24.86 10.4 50.6 47 -0.5 31.1
23:55 1012 29.88 842 24.86 10.2 50.4 47 -0.7 30.8
24:00 1012 29.88 842 24.86 10.1 50.1 48 -0.4 31.3